Terminal Aerodrome Forecast
Issued by NWS Sioux Falls, SD

Home | Current Version | Previous Version | Graphics & Text | Print | Product List | Glossary On
Versions: 1 2 3 4 5 6 7 8 9 10 11 12 13 14 15 16
000
FTUS43 KFSD 271413 AAA
TAFHON
TAF AMD
KHON 271413Z 2714/2812 28006KT 5SM -RA BR OVC060
      TEMPO 2715/2717 P6SM -RA OVC040
     FM271700 32014G20KT P6SM BKN090
     FM272100 27008KT P6SM SCT150
     FM280600 29013KT P6SM OVC035=

USA.gov is the U.S. government's official web portal to all federal, state and local government web resources and services.